»·PEaware :: QXE2868 KSEA-KGEG

QXE2868 :: KSEA-KGEG

FLIGHT INFORMATION

Flight Status: Arrived
Operator:
Horizon Air
More flights by this operator :: More flights under this callsign
Pilot: Adlai G. (28854)
Aircraft: DEHAVILLAND DASH 8 400
(DH8D)
More flights by this aircraft type
Origin: KSEA Seattle-Tacoma Intl
United States
Destination: KGEG Spokane Intl
United States
More flights between these airports :: More routes between these airports
Route: +SEA7 ZADON ZELAK ZIRAN ZOOMR ZOOMR1
File this flight plan on PilotEdge
Remarks:
Altitude:
(Current/Filed)
23,000ft
Speed:
(Current/Filed)
371kts
Departed: 11-May-20 12:40 PM
Arrived: 11-May-20 01:27 PM
Distance/Time
Traveled:
194nm/0:47
Distance/Time
To Go:
Arrived

Flight Plot

Page will automatically refresh every two minutes.

Flight plan parsing failed; only flown route is shown


Map Options




Map Legend


Flown Route
Filed Route
Departure Airport
Arrival Airport
Navaid (VOR, NDB)
Fix

Horizontal Profiles

Position Reports

Time Latitude Longitude Heading Altitude Ground
Speed
11-May-20 12:08 47.445388 -122.304612 50 440ft 0kts
11-May-20 12:09 47.445388 -122.304612 50 440ft 0kts
11-May-20 12:10 47.445388 -122.304612 50 440ft 0kts
11-May-20 12:11 47.445388 -122.304612 50 440ft 0kts
11-May-20 12:12 47.445388 -122.304612 50 440ft 0kts
11-May-20 12:13 47.445388 -122.304612 50 440ft 0kts
11-May-20 12:14 47.445388 -122.304612 50 440ft 0kts
11-May-20 12:15 47.445388 -122.304612 50 440ft 0kts
11-May-20 12:16 47.445388 -122.304612 50 440ft 0kts
11-May-20 12:17 47.445388 -122.304612 50 440ft 0kts
11-May-20 12:18 47.445388 -122.304612 50 440ft 0kts
11-May-20 12:19 47.445388 -122.304612 50 440ft 0kts
11-May-20 12:20 47.445388 -122.304612 50 440ft 0kts
11-May-20 12:21 47.445388 -122.304612 50 440ft 0kts
11-May-20 12:22 47.445388 -122.304612 50 440ft 0kts
11-May-20 12:23 47.445388 -122.304612 50 440ft 0kts
11-May-20 12:24 47.445388 -122.304612 50 440ft 0kts
11-May-20 12:25 47.445388 -122.304612 50 440ft 0kts
11-May-20 12:26 47.445388 -122.304612 50 440ft 0kts
11-May-20 12:27 47.445388 -122.304612 50 440ft 0kts
11-May-20 12:28 47.445036 -122.304968 333 440ft 3kts
11-May-20 12:29 47.445000 -122.304707 269 440ft 0kts
11-May-20 12:30 47.445000 -122.304707 269 440ft 0kts
11-May-20 12:31 47.445000 -122.304707 269 440ft 0kts
11-May-20 12:32 47.445000 -122.304707 269 440ft 0kts
11-May-20 12:33 47.445000 -122.304707 269 440ft 0kts
11-May-20 12:34 47.444999 -122.305201 269 440ft 4kts
11-May-20 12:35 47.446836 -122.306292 0 440ft 17kts
11-May-20 12:36 47.453444 -122.306231 0 440ft 25kts
11-May-20 12:37 47.459858 -122.306176 359 440ft 24kts
11-May-20 12:38 47.463447 -122.307201 270 440ft 6kts
11-May-20 12:39 47.444071 -122.307789 182 1013ft 148kts
11-May-20 12:40 47.394711 -122.308170 179 3600ft 208kts
11-May-20 12:41 47.332509 -122.302062 178 6499ft 227kts
11-May-20 12:42 47.272327 -122.298700 177 9567ft 213kts
11-May-20 12:43 47.212346 -122.294733 175 11740ft 219kts
11-May-20 12:44 47.186016 -122.231415 60 13318ft 238kts
11-May-20 12:45 47.237448 -122.160224 41 14353ft 268kts
11-May-20 12:46 47.294604 -122.086367 41 15546ft 277kts
11-May-20 12:47 47.352799 -122.011124 41 16735ft 281kts
11-May-20 12:48 47.411927 -121.934657 41 17821ft 284kts
11-May-20 12:49 47.471452 -121.857413 41 18920ft 282kts
11-May-20 12:50 47.529682 -121.781483 42 20004ft 279kts
11-May-20 12:51 47.560152 -121.682019 87 20999ft 276kts
11-May-20 12:52 47.560488 -121.568400 91 21999ft 275kts
11-May-20 12:53 47.558546 -121.451572 92 22587ft 293kts
11-May-20 12:54 47.556691 -121.326942 92 22848ft 314kts
11-May-20 12:55 47.554364 -121.193893 92 22858ft 331kts
11-May-20 12:56 47.551843 -121.054710 92 22860ft 343kts
11-May-20 12:57 47.549250 -120.912319 91 22860ft 350kts
11-May-20 12:58 47.546760 -120.767059 92 22862ft 354kts
11-May-20 12:59 47.543324 -120.621313 92 22864ft 356kts
11-May-20 13:00 47.539949 -120.474980 91 22866ft 357kts
11-May-20 13:01 47.535704 -120.327705 94 22868ft 358kts
11-May-20 13:02 47.527776 -120.180438 93 22868ft 359kts
11-May-20 13:03 47.520645 -120.033181 93 22869ft 359kts
11-May-20 13:04 47.514193 -119.885285 94 22869ft 360kts
11-May-20 13:05 47.506414 -119.737848 94 22870ft 360kts
11-May-20 13:06 47.499041 -119.590077 94 22871ft 360kts
11-May-20 13:07 47.491312 -119.442757 95 22632ft 354kts
11-May-20 13:08 47.483403 -119.299813 94 22137ft 350kts
11-May-20 13:09 47.475646 -119.155442 94 21639ft 355kts
11-May-20 13:10 47.467386 -119.009704 94 20293ft 357kts
11-May-20 13:11 47.458927 -118.862935 94 18116ft 358kts
11-May-20 13:12 47.450575 -118.717747 94 16058ft 352kts
11-May-20 13:13 47.441939 -118.576938 94 13981ft 333kts
11-May-20 13:14 47.433808 -118.443524 94 12312ft 319kts
11-May-20 13:15 47.426872 -118.315410 85 10509ft 305kts
11-May-20 13:16 47.447273 -118.202445 71 8812ft 267kts
11-May-20 13:17 47.474675 -118.107337 46 6808ft 244kts
11-May-20 13:18 47.495723 -118.018401 80 4812ft 245kts
11-May-20 13:19 47.504295 -117.920117 80 4431ft 232kts
11-May-20 13:20 47.512967 -117.823535 80 4426ft 241kts
11-May-20 13:21 47.522194 -117.724428 80 4419ft 240kts
11-May-20 13:22 47.545333 -117.647994 47 4123ft 170kts
11-May-20 13:23 47.571516 -117.608024 45 3498ft 111kts
11-May-20 13:24 47.591560 -117.578246 45 2936ft 107kts
11-May-20 13:25 47.614130 -117.544016 47 2380ft 83kts
11-May-20 13:26 47.621779 -117.532498 45 2379ft 33kts
11-May-20 13:27 47.625150 -117.530894 332 2379ft 8kts
11-May-20 13:28 47.625063 -117.532456 315 2379ft 0kts
11-May-20 13:29 47.625084 -117.532579 279 2379ft 5kts
11-May-20 13:30 47.623619 -117.537335 326 2379ft 10kts
11-May-20 13:31 47.623726 -117.538270 253 2379ft 0kts
11-May-20 13:32 47.623726 -117.538270 253 2379ft 0kts
11-May-20 13:33 47.623726 -117.538270 253 2379ft 0kts
11-May-20 13:34 47.623726 -117.538270 253 2379ft 0kts
11-May-20 13:35 47.623726 -117.538270 253 2379ft 0kts

Navigation Log

Ident Type
Flight plan parsing failed, navigation log unavailable